Data for 07/28/2010

Time Sea-Level Adjusted Pressure Absolute Pressure Temperature Relative Humidity Dew Point   
(mb) (inHg) (mb) (inHg) (C) (F) (%) (C) (F)
00:05 1022 30.18 852 25.16 15.5 59.8 85 12.9 55.3
00:10 1022 30.18 852 25.16 15.4 59.7 85 12.8 55
00:15 1022 30.18 851 25.13 15.4 59.7 85 12.9 55.1
00:20 1022 30.18 851 25.13 15.3 59.6 85 12.8 55.1
00:25 1022 30.18 851 25.13 15.3 59.5 85 12.9 55.1
00:30 1022 30.18 851 25.13 15.2 59.4 86 12.8 55.1
00:35 1022 30.18 851 25.13 15.2 59.3 86 12.8 55
00:40 1022 30.18 851 25.13 15.1 59.2 86 12.8 55.1
00:45 1022 30.18 851 25.13 15 59 87 12.8 55.1
00:50 1022 30.18 851 25.13 15 59 86 12.7 54.9
00:55 1022 30.18 851 25.13 15 59.1 86 12.7 54.9
01:00 1022 30.18 851 25.13 15 59.1 86 12.8 55
01:05 1022 30.18 851 25.13 15 59 86 12.7 54.9
01:10 1022 30.18 851 25.13 15 59 87 12.8 55.1
01:15 1021 30.15 851 25.13 14.9 58.9 87 12.7 54.9
01:20 1021 30.15 851 25.13 15.1 59.1 85 12.6 54.6
01:25 1021 30.15 851 25.13 15.1 59.2 86 12.8 55.1
01:30 1021 30.15 850 25.1 15 59 87 12.8 55
01:35 1021 30.15 850 25.1 15 58.9 87 12.8 55.1
01:40 1021 30.15 850 25.1 15 59 87 12.8 55
01:45 1021 30.15 850 25.1 15 59 86 12.8 55
01:50 1021 30.15 850 25.1 15 59 86 12.7 54.9
01:55 1021 30.15 850 25.1 15 59 86 12.8 55
02:00 1021 30.15 850 25.1 15 59 86 12.7 54.9
02:05 1021 30.15 850 25.1 15 58.9 86 12.6 54.7
02:10 1021 30.15 850 25.1 15 59 86 12.6 54.8
02:15 1021 30.15 850 25.1 15.1 59.1 84 12.5 54.4
02:20 1021 30.15 850 25.1 15.2 59.3 83 12.4 54.3
02:25 1021 30.15 850 25.1 15.3 59.6 82 12.3 54.2
02:30 1021 30.15 850 25.1 15.4 59.7 82 12.4 54.3
02:35 1021 30.15 850 25.1 15.4 59.7 82 12.5 54.4
02:40 1021 30.15 850 25.1 15.2 59.4 84 12.6 54.6
02:45 1021 30.15 850 25.1 15 59.1 85 12.5 54.5
02:50 1021 30.15 850 25.1 14.9 58.9 84 12.3 54.1
02:55 1021 30.15 850 25.1 14.9 58.9 84 12.3 54.1
03:00 1021 30.15 851 25.13 14.9 58.9 84 12.3 54.2
03:05 1021 30.15 851 25.13 14.8 58.7 85 12.3 54.2
03:10 1021 30.15 850 25.1 14.7 58.4 86 12.3 54.2
03:15 1021 30.15 851 25.13 14.6 58.3 86 12.2 54
03:20 1021 30.15 851 25.13 14.6 58.3 86 12.2 54
03:25 1021 30.15 851 25.13 14.6 58.2 85 12.2 53.9
03:30 1022 30.18 851 25.13 14.6 58.2 86 12.2 54
03:35 1022 30.18 851 25.13 14.5 58.2 86 12.2 53.9
03:40 1022 30.18 851 25.13 14.6 58.2 88 12.7 54.8
03:45 1022 30.18 851 25.13 14.6 58.2 91 13.1 55.5
03:50 1022 30.18 851 25.13 14.5 58.1 91 13.1 55.5
03:55 1022 30.18 851 25.13 14.4 57.9 92 13.2 55.7
04:00 1022 30.18 851 25.13 14.4 57.8 92 13.2 55.7
04:05 1022 30.18 851 25.13 14.4 57.8 93 13.2 55.8
04:10 1022 30.18 851 25.13 14.4 57.9 93 13.3 55.9
04:15 1022 30.18 851 25.13 14.5 58 93 13.3 55.9
04:20 1022 30.18 851 25.13 14.5 58.2 92 13.3 55.9
04:25 1022 30.18 851 25.13 14.6 58.4 92 13.4 56.1
04:30 1022 30.18 851 25.13 14.6 58.2 92 13.3 55.9
04:35 1022 30.18 851 25.13 14.4 57.9 92 13.1 55.5
04:40 1022 30.18 851 25.13 14.3 57.8 93 13.1 55.6
04:45 1022 30.18 851 25.13 14.2 57.6 93 13.1 55.6
04:50 1022 30.18 851 25.13 14.1 57.4 92 12.9 55.2
04:55 1022 30.18 851 25.13 14 57.2 90 12.5 54.4
05:00 1022 30.18 851 25.13 13.7 56.7 90 12.2 53.9
05:05 1022 30.18 851 25.13 13.6 56.5 90 12.1 53.7
05:10 1022 30.18 851 25.13 13.5 56.3 91 12.1 53.7
05:15 1022 30.18 851 25.13 13.3 56 92 12.1 53.7
05:20 1022 30.18 851 25.13 13.3 55.9 93 12.1 53.8
05:25 1022 30.18 851 25.13 13.2 55.8 93 12.1 53.9
05:30 1022 30.18 851 25.13 13.3 55.9 93 12.1 53.8
05:35 1022 30.18 851 25.13 13.2 55.8 93 12.1 53.8
05:40 1022 30.18 851 25.13 13.2 55.8 92 12 53.7
05:45 1022 30.18 852 25.16 13.3 55.9 92 11.9 53.5
05:50 1022 30.18 851 25.13 13.3 55.9 91 11.8 53.3
05:55 1022 30.18 852 25.16 13.2 55.7 91 11.8 53.2
06:00 1022 30.18 852 25.16 13.1 55.6 91 11.7 53.1
06:05 1022 30.18 852 25.16 13.1 55.5 91 11.6 53
06:10 1022 30.18 852 25.16 13 55.3 91 11.6 52.9
06:15 1022 30.18 852 25.16 13 55.3 91 11.5 52.8
06:20 1023 30.21 852 25.16 12.9 55.3 91 11.5 52.7
06:25 1023 30.21 852 25.16 13.1 55.5 91 11.6 53
06:30 1023 30.21 852 25.16 13.2 55.7 91 11.8 53.2
06:35 1023 30.21 852 25.16 13.2 55.8 92 11.9 53.4
06:40 1023 30.21 852 25.16 13.3 55.9 91 11.8 53.3
06:45 1023 30.21 852 25.16 13.3 55.9 91 11.8 53.3
06:50 1023 30.21 852 25.16 13.2 55.8 92 11.9 53.5
06:55 1023 30.21 852 25.16 13.3 56 91 12 53.5
07:00 1023 30.21 852 25.16 13.3 56 91 11.9 53.5
07:05 1023 30.21 852 25.16 13.4 56 91 11.9 53.5
07:10 1023 30.21 852 25.16 13.4 56.1 91 12 53.5
07:15 1023 30.21 852 25.16 13.4 56.2 90 11.9 53.4
07:20 1023 30.21 852 25.16 13.7 56.6 89 11.9 53.4
07:25 1023 30.21 852 25.16 14 57.2 87 11.9 53.5
07:30 1023 30.21 852 25.16 14.3 57.7 86 12 53.5
07:35 1023 30.21 852 25.16 14.5 58.1 84 11.9 53.5
07:40 1023 30.21 852 25.16 14.8 58.6 84 12.1 53.8
07:45 1023 30.21 852 25.16 15.2 59.4 83 12.3 54.2
07:50 1023 30.21 852 25.16 15.6 60 81 12.4 54.3
07:55 1023 30.21 852 25.16 15.5 60 82 12.4 54.4
08:00 1023 30.21 852 25.16 15.4 59.7 83 12.5 54.4
08:05 1023 30.21 852 25.16 15.8 60.5 80 12.4 54.3
08:10 1023 30.21 852 25.16 16 60.7 79 12.4 54.3
08:15 1023 30.21 852 25.16 16 60.8 80 12.6 54.6
08:20 1023 30.21 852 25.16 16.1 60.9 80 12.7 54.9
08:25 1023 30.21 852 25.16 16.4 61.4 79 12.8 55
08:30 1023 30.21 852 25.16 16.4 61.5 77 12.5 54.5
08:35 1023 30.21 852 25.16 16.5 61.7 77 12.6 54.6
08:40 1023 30.21 852 25.16 16.5 61.8 78 12.8 55
08:45 1023 30.21 852 25.16 16.9 62.5 76 12.7 54.9
08:50 1023 30.21 852 25.16 17.3 63.1 75 12.8 55
08:55 1023 30.21 852 25.16 17.9 64.1 71 12.7 54.8
09:00 1023 30.21 852 25.16 17.5 63.4 75 13 55.5
09:05 1023 30.21 852 25.16 17.5 63.4 74 12.8 55
09:10 1023 30.21 852 25.16 17.7 63.8 73 12.9 55.2
09:15 1023 30.21 852 25.16 18.2 64.8 71 13 55.4
09:20 1023 30.21 852 25.16 19 66.3 68 13.2 55.7
09:25 1023 30.21 852 25.16 18.7 65.6 68 12.6 54.7
09:30 1023 30.21 852 25.16 18.4 65.2 69 12.7 54.9
09:35 1023 30.21 852 25.16 19.1 66.3 65 12.4 54.4
09:40 1023 30.21 852 25.16 19.8 67.6 63 12.6 54.7
09:45 1023 30.21 852 25.16 20.5 69 62 13.1 55.5
09:50 1023 30.21 852 25.16 20.4 68.7 61 12.8 55.1
09:55 1023 30.21 852 25.16 20.1 68.1 63 12.9 55.2
10:00 1023 30.21 852 25.16 19.9 67.7 64 12.9 55.3
10:05 1023 30.21 852 25.16 19.5 67 64 12.5 54.5
10:10 1023 30.21 852 25.16 20.1 68.2 62 12.7 54.9
10:15 1023 30.21 852 25.16 20.1 68.2 61 12.4 54.3
10:20 1023 30.21 852 25.16 20.6 69 61 13 55.3
10:25 1023 30.21 852 25.16 21.2 70.1 58 12.8 55
10:30 1023 30.21 852 25.16 21.2 70.2 58 12.8 55
10:35 1023 30.21 852 25.16 21.5 70.6 59 13.2 55.8
10:40 1023 30.21 852 25.16 21.3 70.4 58 12.9 55.3
10:45 1023 30.21 852 25.16 22.1 71.7 58 13.6 56.4
10:50 1023 30.21 852 25.16 21.7 71.1 61 14.1 57.3
10:55 1023 30.21 852 25.16 21.2 70.2 59 13.1 55.6
11:00 1023 30.21 852 25.16 21.3 70.4 55 12.2 53.9
11:05 1023 30.21 852 25.16 21.8 71.2 55 12.6 54.7
11:10 1023 30.21 852 25.16 23 73.4 54 13.3 55.9
11:15 1023 30.21 852 25.16 22.3 72.1 56 13.2 55.8
11:20 1023 30.21 852 25.16 22.6 72.7 54 13 55.4
11:25 1023 30.21 852 25.16 22.6 72.6 56 13.6 56.5
11:30 1023 30.21 852 25.16 22.5 72.5 54 12.8 55
11:35 1023 30.21 852 25.16 22.8 73.1 52 12.7 54.9
11:40 1023 30.21 852 25.16 23.4 74.1 52 13.2 55.7
11:45 1022 30.18 852 25.16 23 73.4 51 12.6 54.6
11:50 1022 30.18 852 25.16 23.6 74.4 52 13.2 55.7
11:55 1022 30.18 852 25.16 23.4 74.1 51 12.8 55.1
12:00 1022 30.18 852 25.16 24.4 75.8 49 13.3 55.9
12:05 1022 30.18 852 25.16 24.9 76.7 46 12.5 54.6
12:10 1022 30.18 852 25.16 25.7 78.3 44 12.8 55.1
12:15 1022 30.18 852 25.16 25.2 77.3 47 13.1 55.6
12:20 1022 30.18 851 25.13 25.6 78 43 12.3 54.1
12:25 1022 30.18 851 25.13 25.5 77.9 47 13.4 56.2
12:30 1022 30.18 851 25.13 25.2 77.3 44 12.2 54
12:35 1022 30.18 851 25.13 25.4 77.7 46 13 55.4
12:40 1022 30.18 851 25.13 25 77.1 45 12.5 54.5
12:45 1022 30.18 851 25.13 25.2 77.4 44 12.2 53.9
12:50 1022 30.18 851 25.13 25.2 77.4 42 11.7 53
12:55 1022 30.18 851 25.13 26 78.8 40 11.5 52.7
13:00 1022 30.18 851 25.13 25.9 78.6 41 12 53.7
13:05 1022 30.18 851 25.13 26.8 80.2 36 10.9 51.6
13:10 1022 30.18 851 25.13 27.2 80.9 37 11.5 52.7
13:15 1022 30.18 851 25.13 26.8 80.2 37 11.1 52
13:20 1022 30.18 851 25.13 26 78.9 39 11.1 51.9
13:25 1022 30.18 851 25.13 26.6 79.8 38 11.3 52.4
13:30 1022 30.18 851 25.13 27.3 81.2 38 11.9 53.5
13:35 1022 30.18 851 25.13 27.2 80.9 36 11.1 52.1
13:40 1022 30.18 851 25.13 27.7 81.9 34 10.8 51.5
13:45 1022 30.18 851 25.13 28 82.4 32 10.1 50.2
13:50 1022 30.18 851 25.13 28.2 82.8 30 9.3 48.7
13:55 1022 30.18 851 25.13 28.2 82.7 30 9.2 48.6
14:00 1022 30.18 851 25.13 27.8 82 30 8.8 47.9
14:05 1022 30.18 851 25.13 27.6 81.7 29 8.3 47
14:10 1022 30.18 851 25.13 28.3 82.9 27 7.7 45.9
14:15 1022 30.18 851 25.13 28.8 83.8 26 7.5 45.5
14:20 1022 30.18 851 25.13 28.3 82.9 25 6.5 43.7
14:25 1021 30.15 851 25.13 28.2 82.7 22 5 41.1
14:30 1021 30.15 851 25.13 29.1 84.3 23 6.4 43.6
14:35 1021 30.15 851 25.13 27.7 81.9 24 5.5 42
14:40 1021 30.15 850 25.1 28.1 82.7 22 5 41.1
14:45 1021 30.15 850 25.1 29 84.3 22 5.5 41.8
14:50 1021 30.15 850 25.1 28.5 83.4 21 4.2 39.6
14:55 1021 30.15 850 25.1 28.5 83.4 23 6 42.8
15:00 1021 30.15 850 25.1 29.1 84.4 18 2.6 36.7
15:05 1021 30.15 850 25.1 29.8 85.6 21 5.5 42
15:10 1021 30.15 850 25.1 28.8 83.8 22 5.2 41.4
15:15 1021 30.15 850 25.1 28.8 83.8 20 3.6 38.5
15:20 1021 30.15 850 25.1 29.4 84.9 20 4.2 39.5
15:25 1021 30.15 850 25.1 28.7 83.6 21 4.6 40.3
15:30 1021 30.15 850 25.1 29.5 85 19 3.7 38.6
15:35 1021 30.15 850 25.1 29.5 85.1 19 3.9 39
15:40 1021 30.15 850 25.1 29.1 84.3 19 3.5 38.4
15:45 1021 30.15 850 25.1 28.9 84.1 18 2.2 35.9
15:50 1021 30.15 850 25.1 29.3 84.8 19 3.5 38.4
15:55 1021 30.15 850 25.1 29.4 84.9 18 3.1 37.6
16:00 1021 30.15 850 25.1 28.7 83.7 18 2.6 36.7
16:05 1021 30.15 850 25.1 28.4 83.1 18 1.9 35.4
16:10 1021 30.15 850 25.1 28.5 83.2 18 1.9 35.5
16:15 1021 30.15 850 25.1 28.2 82.8 18 2 35.6
16:20 1020 30.12 850 25.1 28.2 82.8 19 2.4 36.3
16:25 1020 30.12 850 25.1 28.5 83.2 18 1.9 35.4
16:30 1020 30.12 850 25.1 28.3 82.9 19 2.5 36.6
16:35 1020 30.12 849 25.07 28.3 82.9 19 2.8 37.1
16:40 1020 30.12 849 25.07 28.6 83.4 19 2.9 37.2
16:45 1020 30.12 849 25.07 28.8 83.8 19 3 37.4
16:50 1020 30.12 850 25.1 28.7 83.6 19 3.4 38.1
16:55 1020 30.12 850 25.1 28.6 83.5 18 2.4 36.2
17:00 1021 30.15 850 25.1 28.7 83.6 19 2.9 37.1
17:05 1021 30.15 850 25.1 28.7 83.7 18 2.7 36.9
17:10 1021 30.15 850 25.1 28.6 83.5 20 3.7 38.6
17:15 1021 30.15 850 25.1 28.4 83.1 20 3.9 39.1
17:20 1021 30.15 850 25.1 28.2 82.7 20 3.7 38.7
17:25 1021 30.15 850 25.1 27.9 82.1 21 4 39.2
17:30 1021 30.15 850 25.1 27.6 81.6 23 5.1 41.1
17:35 1021 30.15 850 25.1 27.1 80.7 25 5.4 41.8
17:40 1021 30.15 850 25.1 26.7 80.1 26 6.2 43.1
17:45 1021 30.15 851 25.13 26.3 79.4 32 8.6 47.5
17:50 1022 30.18 851 25.13 24.1 75.4 40 10 49.9
17:55 1022 30.18 851 25.13 22.7 72.8 42 9.4 49
18:00 1022 30.18 852 25.16 21.9 71.4 46 9.9 49.9
18:05 1023 30.21 852 25.16 21.1 69.9 51 10.6 51.1
18:10 1023 30.21 852 25.16 20.4 68.7 56 11.4 52.6
18:15 1023 30.21 852 25.16 19.6 67.2 60 11.6 53
18:20 1023 30.21 852 25.16 19.1 66.5 59 11 51.8
18:25 1023 30.21 852 25.16 18.7 65.6 64 11.7 53.1
18:30 1023 30.21 852 25.16 18.4 65.1 58 10.1 50.1
18:35 1023 30.21 852 25.16 19 66.1 62 11.5 52.8
18:40 1023 30.21 852 25.16 18.2 64.8 67 12.1 53.8
18:45 1023 30.21 852 25.16 17.9 64.1 67 11.7 53
18:50 1022 30.18 852 25.16 18 64.5 67 11.9 53.5
18:55 1022 30.18 851 25.13 17.9 64.2 69 12.1 53.9
19:00 1022 30.18 851 25.13 18 64.3 66 11.7 53
19:05 1022 30.18 851 25.13 18.2 64.7 68 12.2 53.9
19:10 1022 30.18 851 25.13 17.9 64.2 68 11.9 53.5
19:15 1022 30.18 851 25.13 17.8 64.1 67 11.6 52.9
19:20 1022 30.18 851 25.13 18.2 64.8 67 12 53.6
19:25 1022 30.18 851 25.13 18.2 64.8 67 12.1 53.8
19:30 1022 30.18 851 25.13 18.4 65.2 60 10.7 51.3
19:35 1022 30.18 851 25.13 19.1 66.4 61 11.4 52.6
19:40 1022 30.18 851 25.13 19.2 66.5 61 11.6 52.9
19:45 1022 30.18 851 25.13 19.2 66.6 62 12 53.6
19:50 1022 30.18 851 25.13 19.3 66.8 62 12 53.5
19:55 1022 30.18 851 25.13 19.2 66.5 60 11.3 52.3
20:00 1022 30.18 851 25.13 19 66.3 61 11.3 52.4
20:05 1022 30.18 851 25.13 18.8 65.8 61 11.3 52.3
20:10 1022 30.18 851 25.13 18.8 65.8 60 10.9 51.6
20:15 1022 30.18 851 25.13 18.8 65.8 61 11.2 52.2
20:20 1022 30.18 851 25.13 18.8 65.9 61 11.3 52.3
20:25 1022 30.18 851 25.13 18.8 65.8 63 11.7 53
20:30 1022 30.18 851 25.13 18.6 65.5 63 11.4 52.6
20:35 1022 30.18 851 25.13 18.5 65.4 64 11.7 53.1
20:40 1022 30.18 851 25.13 18.3 65 67 12.3 54.1
20:45 1022 30.18 851 25.13 18 64.5 67 11.9 53.4
20:50 1022 30.18 851 25.13 18.2 64.7 63 11.2 52.1
20:55 1022 30.18 851 25.13 18.4 65.1 64 11.5 52.7
21:00 1022 30.18 851 25.13 18.4 65 63 11.2 52.2
21:05 1022 30.18 851 25.13 18.5 65.2 61 10.9 51.5
21:10 1022 30.18 851 25.13 18.8 65.8 59 10.8 51.5
21:15 1022 30.18 851 25.13 18.9 66.1 57 10.3 50.6
21:20 1022 30.18 851 25.13 19.2 66.6 56 10.3 50.6
21:25 1022 30.18 851 25.13 19.3 66.8 54 10 49.9
21:30 1022 30.18 851 25.13 19.4 67 55 10.4 50.6
21:35 1022 30.18 851 25.13 19.3 66.7 55 10.2 50.4
21:40 1022 30.18 851 25.13 19.1 66.4 60 11.4 52.5
21:45 1022 30.18 851 25.13 18.9 66 59 10.9 51.6
21:50 1022 30.18 851 25.13 18.8 65.8 61 11.3 52.3
21:55 1022 30.18 851 25.13 18.5 65.2 61 10.9 51.6
22:00 1022 30.18 851 25.13 18.5 65.3 62 11.2 52.2
22:05 1022 30.18 851 25.13 18.5 65.3 61 10.9 51.6
22:10 1022 30.18 851 25.13 18.5 65.3 61 11 51.8
22:15 1022 30.18 851 25.13 18.2 64.7 64 11.5 52.6
22:20 1022 30.18 851 25.13 17.9 64.2 64 11.2 52.1
22:25 1022 30.18 851 25.13 18 64.4 66 11.8 53.2
22:30 1022 30.18 851 25.13 18 64.4 65 11.3 52.4
22:35 1022 30.18 851 25.13 17.8 64 63 10.8 51.5
22:40 1022 30.18 851 25.13 17.8 64.1 64 11.1 52
22:45 1022 30.18 851 25.13 17.8 64.1 65 11.3 52.4
22:50 1022 30.18 851 25.13 17.8 64 66 11.5 52.7
22:55 1022 30.18 851 25.13 17.5 63.5 69 11.9 53.4
23:00 1022 30.18 851 25.13 17.2 63 68 11.3 52.3
23:05 1022 30.18 851 25.13 17 62.5 69 11.3 52.3
23:10 1022 30.18 851 25.13 16.5 61.6 70 11 51.8
23:15 1022 30.18 851 25.13 17 62.6 63 9.9 49.8
23:20 1022 30.18 851 25.13 17.5 63.4 64 10.6 51.1
23:25 1022 30.18 851 25.13 17.3 63.2 64 10.7 51.2
23:30 1022 30.18 851 25.13 17.2 62.9 63 10.1 50.2
23:35 1022 30.18 851 25.13 17 62.7 64 10.3 50.5
23:40 1022 30.18 851 25.13 16.8 62.2 65 10.3 50.5
23:45 1022 30.18 851 25.13 16.6 62 66 10.3 50.6
23:50 1022 30.18 851 25.13 16.4 61.5 67 10.4 50.7
23:55 1022 30.18 851 25.13 16.3 61.3 67 10.2 50.3
24:00 1022 30.18 851 25.13 16.5 61.7 66 10.2 50.4